Time;durP1;ratioP1;P1;durP2;ratioP2;P2;SDS_P1;SDS_P2;PMS_P1;PMS_P2;Temp;Humidity;BMP_temperature;BMP_pressure;BME280_temperature;BME280_humidity;BME280_pressure;Samples;Min_cycle;Max_cycle;Signal;HPM_P1;HPM_P2
2022/10/10 10:50:10;;;;;;;10.90;4.47;;;14.80;99.90;;;;;;5049416;28;20195;-70
2022/10/10 10:52:42;;;;;;;9.82;5.13;;;14.60;99.90;;;;;;5049303;28;20400;-70
2022/10/10 10:55:19;;;;;;;11.60;4.75;;;14.70;99.90;;;;;;5047770;28;20102;-69
2022/10/10 10:58:21;;;;;;;10.15;4.55;;;14.70;99.90;;;;;;5047735;28;20082;-72
2022/10/10 11:01:32;;;;;;;11.45;5.20;;;14.70;99.90;;;;;;5074919;28;20053;-71
2022/10/10 11:04:02;;;;;;;11.13;5.60;;;14.90;99.90;;;;;;5049384;28;20482;-71
2022/10/10 11:06:48;;;;;;;11.55;4.53;;;15.10;99.90;;;;;;5046599;28;20041;-74
2022/10/10 11:09:40;;;;;;;8.45;4.50;;;15.30;99.90;;;;;;5045859;28;20535;-70
2022/10/10 11:12:41;;;;;;;14.55;5.22;;;15.50;99.90;;;;;;5047180;28;20378;-72
2022/10/10 11:15:10;;;;;;;12.77;4.85;;;15.40;99.90;;;;;;5082807;28;20040;-71
2022/10/10 11:17:43;;;;;;;10.57;4.10;;;15.40;99.90;;;;;;5050879;28;20049;-73
2022/10/10 11:20:30;;;;;;;14.77;5.55;;;15.30;99.90;;;;;;5072917;28;20443;-70
2022/10/10 11:23:34;;;;;;;10.90;4.93;;;15.30;99.90;;;;;;5057577;28;20045;-71
2022/10/10 11:26:06;;;;;;;10.80;4.30;;;15.20;99.90;;;;;;5044918;28;20080;-70
2022/10/10 11:28:40;;;;;;;11.90;4.38;;;15.20;99.90;;;;;;5061439;28;20052;-71
2022/10/10 11:31:11;;;;;;;9.15;4.40;;;15.20;99.90;;;;;;5046002;28;20081;-73
2022/10/10 11:33:46;;;;;;;18.50;4.70;;;15.10;99.90;;;;;;5046113;28;20037;-69
2022/10/10 11:36:18;;;;;;;9.07;3.53;;;15.10;99.90;;;;;;5046548;28;20111;-66
2022/10/10 11:39:15;;;;;;;10.43;4.20;;;15.20;99.90;;;;;;5044179;28;20076;-71
2022/10/10 11:41:43;;;;;;;11.15;4.40;;;15.30;99.90;;;;;;5066370;28;20109;-70
2022/10/10 11:44:20;;;;;;;17.15;4.60;;;15.30;99.90;;;;;;5051779;28;20041;-71
2022/10/10 11:46:53;;;;;;;8.32;4.45;;;15.30;99.90;;;;;;5044038;28;20176;-70
2022/10/10 11:49:27;;;;;;;12.38;4.38;;;15.30;99.90;;;;;;5078193;28;20048;-70
2022/10/10 11:51:56;;;;;;;12.50;4.63;;;15.20;99.90;;;;;;5078011;28;20048;-71
2022/10/10 11:54:28;;;;;;;13.43;4.20;;;15.20;99.90;;;;;;5087962;28;20510;-69
2022/10/10 11:57:02;;;;;;;11.05;4.53;;;15.20;99.90;;;;;;5059995;28;20045;-69
2022/10/10 11:59:33;;;;;;;9.15;4.55;;;15.20;99.90;;;;;;5044833;28;20067;-71
2022/10/10 12:02:01;;;;;;;10.70;4.38;;;15.20;99.90;;;;;;5066181;28;20045;-70
2022/10/10 12:04:35;;;;;;;10.18;4.05;;;15.20;99.90;;;;;;5067994;28;20115;-71
2022/10/10 12:07:12;;;;;;;7.40;3.53;;;15.20;99.90;;;;;;5063446;28;20051;-70
2022/10/10 12:09:42;;;;;;;8.98;3.90;;;15.20;99.90;;;;;;5050513;28;20049;-70
2022/10/10 12:12:25;;;;;;;11.77;4.13;;;15.20;99.90;;;;;;5057913;28;20033;-70
2022/10/10 12:14:55;;;;;;;11.55;3.90;;;15.10;99.90;;;;;;5043609;28;20048;-70
2022/10/10 12:17:28;;;;;;;8.32;3.88;;;15.00;99.90;;;;;;5062638;28;20125;-70
2022/10/10 12:19:54;;;;;;;9.18;3.72;;;15.00;99.90;;;;;;5054177;28;20311;-70
2022/10/10 12:22:22;;;;;;;;;;;14.90;99.90;;;;;;5065283;28;20053;-70
2022/10/10 12:25:09;;;;;;;9.90;3.60;;;14.90;99.90;;;;;;5056582;28;19916;-68
2022/10/10 12:27:44;;;;;;;7.78;3.83;;;14.90;99.90;;;;;;5043326;28;20041;-70
2022/10/10 12:30:20;;;;;;;9.82;4.00;;;14.90;99.90;;;;;;5063344;28;20436;-70
2022/10/10 12:32:49;;;;;;;7.13;3.63;;;14.90;99.90;;;;;;5057192;28;20083;-70
2022/10/10 12:35:41;;;;;;;9.18;3.40;;;14.90;99.90;;;;;;5042658;28;20083;-69
2022/10/10 12:38:08;;;;;;;9.15;3.80;;;15.00;99.90;;;;;;5037490;28;20056;-70
2022/10/10 12:41:03;;;;;;;7.97;3.78;;;15.00;99.90;;;;;;5056108;28;20115;-69
2022/10/10 12:43:42;;;;;;;9.20;3.60;;;15.10;99.90;;;;;;5039116;28;20060;-70
2022/10/10 12:46:15;;;;;;;9.85;4.30;;;15.20;99.90;;;;;;5054518;28;20048;-71
2022/10/10 12:48:41;;;;;;;14.00;3.83;;;15.20;99.90;;;;;;5045762;28;20467;-70
2022/10/10 12:51:15;;;;;;;;;;;15.20;99.90;;;;;;5041272;28;20052;-70
2022/10/10 12:53:49;;;;;;;11.75;4.85;;;15.20;99.90;;;;;;5060093;28;19923;-71
2022/10/10 12:56:15;;;;;;;10.07;4.05;;;15.30;99.90;;;;;;5059562;28;20040;-70
2022/10/10 12:58:42;;;;;;;8.13;4.25;;;15.30;99.90;;;;;;5036674;28;20534;-69
2022/10/10 13:01:25;;;;;;;9.18;4.32;;;15.30;99.90;;;;;;5055640;28;20477;-70
2022/10/10 13:03:53;;;;;;;13.32;4.30;;;15.30;99.90;;;;;;5043782;28;20504;-70
2022/10/10 13:06:42;;;;;;;7.80;3.78;;;15.30;99.90;;;;;;5048288;28;20429;-71
2022/10/10 13:09:29;;;;;;;11.70;4.13;;;15.30;99.90;;;;;;5059743;28;20075;-75
2022/10/10 13:11:58;;;;;;;10.95;4.22;;;15.30;99.90;;;;;;5062043;28;20044;-70
2022/10/10 13:14:37;;;;;;;10.00;4.32;;;15.20;99.90;;;;;;5068034;28;20060;-70
2022/10/10 13:17:17;;;;;;;11.18;5.00;;;15.10;99.90;;;;;;5052285;28;20044;-70
2022/10/10 13:19:43;;;;;;;22.02;6.53;;;15.00;99.90;;;;;;5055784;28;20102;-70
2022/10/10 13:22:09;;;;;;;11.15;4.75;;;14.90;99.90;;;;;;5041289;28;20079;-71
2022/10/10 13:24:34;;;;;;;12.23;5.38;;;14.80;99.90;;;;;;5053041;28;20094;-71
2022/10/10 13:27:00;;;;;;;15.85;5.13;;;14.80;99.90;;;;;;5058929;28;20040;-71
2022/10/10 13:29:38;;;;;;;14.10;5.60;;;14.70;99.90;;;;;;5033931;28;20091;-70
2022/10/10 13:32:08;;;;;;;14.00;5.80;;;14.70;99.90;;;;;;5052276;28;20469;-71
2022/10/10 13:34:36;;;;;;;12.02;5.85;;;14.60;99.90;;;;;;5055290;28;20485;-72
2022/10/10 13:37:04;;;;;;;16.67;6.18;;;14.60;99.90;;;;;;5028954;28;20075;-72
2022/10/10 13:39:34;;;;;;;15.85;6.35;;;14.50;99.90;;;;;;5042720;28;20067;-72
2022/10/10 13:42:00;;;;;;;13.13;5.75;;;14.50;99.90;;;;;;5043516;28;20076;-73
2022/10/10 13:44:51;;;;;;;13.65;6.35;;;14.40;99.90;;;;;;5062047;28;20045;-72
2022/10/10 13:47:41;;;;;;;17.05;5.70;;;14.30;99.90;;;;;;5033858;28;20095;-72
2022/10/10 13:50:42;;;;;;;14.80;6.22;;;14.20;99.90;;;;;;5060815;28;20084;-72
2022/10/10 13:53:26;;;;;;;16.52;5.75;;;14.20;99.90;;;;;;5037666;28;20052;-73
2022/10/10 13:56:17;;;;;;;18.70;6.68;;;14.20;99.90;;;;;;5061612;28;20036;-71
2022/10/10 13:59:12;;;;;;;14.23;5.43;;;14.20;99.90;;;;;;5067892;28;20064;-71
2022/10/10 14:01:42;;;;;;;11.73;5.50;;;14.10;99.90;;;;;;5058897;28;20124;-71
2022/10/10 14:04:16;;;;;;;9.50;4.82;;;14.10;99.90;;;;;;5046433;28;20044;-71
2022/10/10 14:07:14;;;;;;;10.07;4.70;;;14.10;99.90;;;;;;5062454;28;20048;-72
2022/10/10 14:09:49;;;;;;;8.55;4.35;;;14.10;99.90;;;;;;5012799;28;20087;-71
2022/10/10 14:12:31;;;;;;;10.15;4.32;;;14.10;99.90;;;;;;5051863;28;20120;-72
2022/10/10 14:14:58;;;;;;;10.25;4.40;;;14.00;99.90;;;;;;5051293;28;20058;-71
2022/10/10 14:17:25;;;;;;;9.82;4.45;;;14.00;99.90;;;;;;5050390;28;20076;-70
2022/10/10 14:19:52;;;;;;;14.32;4.97;;;14.00;99.90;;;;;;5064853;28;20376;-70
2022/10/10 14:22:19;;;;;;;10.18;4.75;;;14.00;99.90;;;;;;5069558;28;20401;-72
2022/10/10 14:24:45;;;;;;;12.45;4.63;;;14.00;99.90;;;;;;5065665;28;20498;-72
2022/10/10 14:27:15;;;;;;;15.43;4.35;;;14.00;99.90;;;;;;5061820;28;20040;-71
2022/10/10 14:29:41;;;;;;;10.80;4.15;;;13.90;99.90;;;;;;5066452;28;20037;-72
2022/10/10 14:32:12;;;;;;;10.52;4.85;;;13.90;99.90;;;;;;5065343;28;20029;-72
2022/10/10 14:34:38;;;;;;;9.13;4.53;;;13.90;99.90;;;;;;5069051;28;20052;-71
2022/10/10 14:37:04;;;;;;;14.02;5.03;;;13.90;99.90;;;;;;5063557;28;20037;-72
2022/10/10 14:39:30;;;;;;;;;;;13.90;99.90;;;;;;5065401;28;20115;-72
2022/10/10 14:41:57;;;;;;;14.57;5.53;;;13.80;99.90;;;;;;5065928;28;19981;-71
2022/10/10 14:44:23;;;;;;;14.40;5.97;;;13.80;99.90;;;;;;5067974;28;20041;-72
2022/10/10 14:46:49;;;;;;;8.15;3.00;;;13.70;99.90;;;;;;5059477;28;20056;-72
2022/10/10 14:49:19;;;;;;;7.80;2.92;;;13.50;99.90;;;;;;5047389;28;20044;-72
2022/10/10 14:51:46;;;;;;;4.18;1.83;;;13.30;99.90;;;;;;5061972;28;20095;-73
2022/10/10 14:54:12;;;;;;;5.30;1.58;;;13.10;99.90;;;;;;5046505;28;20439;-72
2022/10/10 14:56:40;;;;;;;3.10;1.02;;;13.00;99.90;;;;;;5046261;28;20037;-72
2022/10/10 14:59:19;;;;;;;6.18;1.02;;;12.80;99.90;;;;;;5048573;28;20087;-72
2022/10/10 15:01:46;;;;;;;1.52;0.68;;;12.70;99.90;;;;;;5047742;28;20084;-73
2022/10/10 15:04:12;;;;;;;3.20;0.80;;;12.60;99.90;;;;;;5044458;28;20576;-72
2022/10/10 15:06:38;;;;;;;;;;;12.50;99.90;;;;;;5037407;28;20046;-73
2022/10/10 15:09:04;;;;;;;4.82;1.60;;;12.40;99.90;;;;;;5042561;28;19916;-73
2022/10/10 15:11:30;;;;;;;;;;;12.40;99.90;;;;;;5043922;28;20045;-73
2022/10/10 15:13:56;;;;;;;6.75;1.58;;;12.30;99.90;;;;;;5042602;28;20025;-73
2022/10/10 15:16:22;;;;;;;4.70;1.17;;;12.30;99.90;;;;;;5037392;28;20066;-73
2022/10/10 15:18:47;;;;;;;;;;;12.30;99.90;;;;;;5044887;28;20726;-74
2022/10/10 15:21:13;;;;;;;7.30;1.02;;;12.20;99.90;;;;;;5034471;28;19967;-74
2022/10/10 15:23:39;;;;;;;4.60;1.20;;;12.20;99.90;;;;;;5031892;28;20049;-73
2022/10/10 15:26:05;;;;;;;9.48;1.50;;;12.20;99.90;;;;;;5029413;28;20045;-73
2022/10/10 15:28:31;;;;;;;7.05;1.75;;;12.20;99.90;;;;;;5029870;28;20117;-73
2022/10/10 15:30:56;;;;;;;;;;;12.20;99.90;;;;;;5028359;28;20073;-73
2022/10/10 15:33:22;;;;;;;2.55;1.23;;;12.20;99.90;;;;;;5027626;28;19972;-73
2022/10/10 15:35:59;;;;;;;15.15;1.73;;;12.20;99.90;;;;;;5045690;28;20129;-74
2022/10/10 15:38:26;;;;;;;5.38;1.73;;;12.20;99.90;;;;;;5031886;28;20448;-73
2022/10/10 15:40:59;;;;;;;7.15;1.42;;;12.30;99.90;;;;;;5041498;28;20048;-73
2022/10/10 15:43:26;;;;;;;6.53;1.30;;;12.30;99.90;;;;;;5044492;28;20087;-73
2022/10/10 15:45:52;;;;;;;5.82;1.90;;;12.40;99.90;;;;;;5034021;28;20242;-74
2022/10/10 15:48:19;;;;;;;4.15;1.52;;;12.40;99.90;;;;;;5043924;28;20041;-72
2022/10/10 15:50:44;;;;;;;8.13;1.25;;;12.50;99.90;;;;;;5060706;28;20045;-71
2022/10/10 15:53:11;;;;;;;6.80;1.20;;;13.00;99.90;;;;;;5060846;28;20039;-74
2022/10/10 15:55:40;;;;;;;;;;;13.50;99.90;;;;;;5066876;28;20087;-73
2022/10/10 15:58:06;;;;;;;4.75;1.48;;;13.90;99.90;;;;;;5061483;28;19917;-75
2022/10/10 16:00:32;;;;;;;7.40;1.48;;;14.50;99.90;;;;;;5037094;28;20056;-73
2022/10/10 16:02:57;;;;;;;8.00;1.42;;;15.00;99.90;;;;;;5074828;28;20119;-73
2022/10/10 16:05:23;;;;;;;6.43;1.30;;;15.50;99.90;;;;;;5055218;28;20504;-72
2022/10/10 16:07:51;;;;;;;8.02;2.05;;;15.80;99.90;;;;;;5013425;28;20041;-74
2022/10/10 16:10:17;;;;;;;4.45;1.30;;;15.90;99.90;;;;;;5052113;28;20079;-74
2022/10/10 16:12:43;;;;;;;9.40;1.77;;;16.00;99.90;;;;;;5026174;28;20052;-71
2022/10/10 16:15:09;;;;;;;5.55;1.60;;;15.90;99.90;;;;;;5077817;28;20040;-70
2022/10/10 16:17:34;;;;;;;5.55;1.13;;;15.80;99.90;;;;;;5068164;28;20127;-70
2022/10/10 16:20:00;;;;;;;7.95;1.40;;;15.80;99.90;;;;;;5071776;28;20043;-70
2022/10/10 16:22:25;;;;;;;7.50;1.83;;;15.70;99.90;;;;;;5067921;28;20037;-71
2022/10/10 16:24:51;;;;;;;6.95;1.58;;;15.60;99.90;;;;;;5053824;28;20044;-74
2022/10/10 16:27:17;;;;;;;5.75;1.30;;;15.40;99.90;;;;;;5061217;28;20042;-70
2022/10/10 16:29:42;;;;;;;;;;;15.20;99.90;;;;;;5053376;28;20080;-73
2022/10/10 16:32:08;;;;;;;5.82;1.20;;;15.00;99.90;;;;;;5076368;28;19953;-72
2022/10/10 16:34:34;;;;;;;16.50;1.40;;;14.70;99.90;;;;;;5058195;28;20037;-73
2022/10/10 16:36:59;;;;;;;4.43;1.10;;;14.40;99.90;;;;;;5055427;28;20040;-72
2022/10/10 16:39:25;;;;;;;;;;;14.20;99.90;;;;;;5069415;28;20123;-73
2022/10/10 16:41:50;;;;;;;6.05;1.77;;;13.80;99.90;;;;;;5049742;28;19974;-72
2022/10/10 16:44:16;;;;;;;20.08;5.55;;;13.50;99.90;;;;;;5068482;28;20887;-70
2022/10/10 16:46:42;;;;;;;17.75;5.13;;;13.20;99.90;;;;;;5065803;28;20523;-69
2022/10/10 16:49:10;;;;;;;8.48;1.73;;;13.10;99.90;;;;;;5068847;28;20044;-72
2022/10/10 16:51:36;;;;;;;7.10;1.58;;;12.90;99.90;;;;;;5066901;28;20052;-76
2022/10/10 16:54:04;;;;;;;4.72;1.30;;;12.70;99.90;;;;;;5052035;28;20037;-76
2022/10/10 16:56:29;;;;;;;7.10;1.52;;;12.50;99.90;;;;;;5032594;28;20107;-76
2022/10/10 16:58:58;;;;;;;11.95;1.30;;;12.30;99.90;;;;;;5051738;28;20033;-79
2022/10/10 17:01:23;;;;;;;9.35;1.52;;;12.20;99.90;;;;;;5035103;28;20718;-76
2022/10/10 17:03:50;;;;;;;11.00;1.35;;;12.00;99.90;;;;;;5033827;28;20060;-74
2022/10/10 17:06:19;;;;;;;9.93;1.42;;;11.80;99.90;;;;;;5051959;28;20053;-77
2022/10/10 17:08:50;;;;;;;11.88;2.33;;;11.70;99.90;;;;;;5076342;28;20039;-75
2022/10/10 17:11:17;;;;;;;9.18;1.40;;;11.60;99.90;;;;;;5073245;28;20076;-76
2022/10/10 17:13:43;;;;;;;6.93;1.80;;;11.50;99.90;;;;;;5056311;28;20572;-76
2022/10/10 17:16:12;;;;;;;;;;;11.40;99.90;;;;;;5051233;28;20106;-76
2022/10/10 17:18:37;;;;;;;4.18;1.77;;;11.30;99.90;;;;;;5041588;28;19924;-77
2022/10/10 17:21:07;;;;;;;12.60;2.03;;;11.30;99.90;;;;;;5037333;28;20036;-76
2022/10/10 17:23:33;;;;;;;5.28;1.38;;;11.20;99.90;;;;;;5047657;28;20075;-76
2022/10/10 17:25:59;;;;;;;4.22;1.35;;;11.20;99.90;;;;;;5048864;28;20041;-77
2022/10/10 17:28:24;;;;;;;12.38;1.70;;;11.10;99.90;;;;;;5051555;28;20040;-76
2022/10/10 17:30:50;;;;;;;7.85;1.38;;;11.00;99.90;;;;;;5051127;28;20048;-76
2022/10/10 17:33:18;;;;;;;12.40;2.85;;;11.00;99.90;;;;;;5051014;28;20047;-75
2022/10/10 17:35:50;;;;;;;10.18;2.15;;;10.90;99.90;;;;;;5042626;28;20047;-75
2022/10/10 17:38:18;;;;;;;9.75;2.35;;;10.80;99.90;;;;;;5045228;28;20564;-73
2022/10/10 17:40:53;;;;;;;14.02;1.90;;;10.70;99.90;;;;;;5023063;28;20055;-76
2022/10/10 17:43:19;;;;;;;11.15;2.40;;;10.70;99.90;;;;;;5027677;28;20586;-76
2022/10/10 17:45:45;;;;;;;6.93;2.17;;;10.60;99.90;;;;;;5042002;28;20048;-76
2022/10/10 17:48:11;;;;;;;8.65;1.80;;;10.50;99.90;;;;;;5043670;28;20045;-76
2022/10/10 17:50:36;;;;;;;11.63;2.10;;;10.50;99.90;;;;;;5051044;28;20057;-76
2022/10/10 17:53:03;;;;;;;10.65;1.80;;;10.40;99.90;;;;;;5047471;28;20056;-77
2022/10/10 17:55:29;;;;;;;7.10;1.70;;;10.40;99.90;;;;;;5050177;28;20385;-76
2022/10/10 17:57:54;;;;;;;6.30;1.77;;;10.30;99.90;;;;;;5043567;28;20037;-76
2022/10/10 18:00:20;;;;;;;7.90;2.10;;;10.30;99.90;;;;;;5048501;28;20107;-76
2022/10/10 18:02:46;;;;;;;11.70;1.60;;;10.20;99.90;;;;;;5029473;28;20052;-76
2022/10/10 18:05:11;;;;;;;9.93;2.28;;;10.20;99.90;;;;;;5054235;28;20412;-76
2022/10/10 18:07:37;;;;;;;9.10;2.13;;;10.10;99.90;;;;;;5067585;28;20056;-76
2022/10/10 18:10:04;;;;;;;9.93;1.63;;;10.10;99.90;;;;;;5038411;28;20085;-77
2022/10/10 18:12:30;;;;;;;11.52;2.63;;;10.10;99.90;;;;;;5033436;28;20056;-76
2022/10/10 18:14:55;;;;;;;16.80;2.30;;;10.10;99.90;;;;;;5034555;28;20052;-76
2022/10/10 18:17:21;;;;;;;9.50;2.10;;;10.00;99.90;;;;;;5027872;28;20137;-76
2022/10/10 18:19:47;;;;;;;9.38;2.35;;;10.00;99.90;;;;;;5046645;28;20507;-76
2022/10/10 18:22:13;;;;;;;9.05;1.83;;;9.90;99.90;;;;;;5062152;28;20469;-75
2022/10/10 18:24:39;;;;;;;8.98;1.40;;;9.90;99.90;;;;;;5046373;28;20179;-75
2022/10/10 18:27:05;;;;;;;7.60;1.52;;;9.90;99.90;;;;;;5050349;28;20422;-76
2022/10/10 18:29:30;;;;;;;14.43;1.98;;;9.80;99.90;;;;;;5046158;28;20477;-76
2022/10/10 18:31:56;;;;;;;8.75;1.80;;;9.90;99.90;;;;;;5045486;28;20539;-76
2022/10/10 18:34:22;;;;;;;9.20;2.45;;;9.90;99.90;;;;;;5048488;28;20052;-75
2022/10/10 18:36:49;;;;;;;9.40;1.80;;;9.90;99.90;;;;;;5019577;28;20074;-76
2022/10/10 18:39:16;;;;;;;11.32;2.30;;;9.80;99.90;;;;;;5033740;28;20052;-76
2022/10/10 18:41:42;;;;;;;11.43;2.08;;;9.80;99.90;;;;;;5038002;28;20273;-76
2022/10/10 18:44:11;;;;;;;11.90;2.50;;;9.80;99.90;;;;;;5051247;28;20122;-76
2022/10/10 18:46:38;;;;;;;19.27;2.42;;;9.70;99.90;;;;;;5050229;28;20087;-76
2022/10/10 18:49:07;;;;;;;8.68;2.13;;;9.70;99.90;;;;;;5029914;28;20059;-76
2022/10/10 18:51:33;;;;;;;10.10;2.30;;;9.60;99.90;;;;;;5051671;28;20468;-76
2022/10/10 18:54:02;;;;;;;8.40;2.08;;;9.60;99.90;;;;;;5033975;28;20652;-76
2022/10/10 18:56:30;;;;;;;8.30;2.97;;;9.50;99.90;;;;;;5021964;28;20806;-75
2022/10/10 18:59:00;;;;;;;10.70;2.50;;;9.60;99.90;;;;;;5055719;28;20037;-75
2022/10/10 19:01:27;;;;;;;10.32;3.38;;;9.40;99.90;;;;;;5028764;28;20338;-74
2022/10/10 19:03:53;;;;;;;14.63;2.60;;;9.40;99.90;;;;;;5049721;28;20103;-76
2022/10/10 19:06:21;;;;;;;10.68;2.50;;;9.40;99.90;;;;;;5047733;28;20041;-76
2022/10/10 19:08:47;;;;;;;17.85;2.00;;;9.30;99.90;;;;;;5032491;28;20528;-77
2022/10/10 19:11:21;;;;;;;11.95;2.33;;;9.30;99.90;;;;;;5055577;28;20049;-77
2022/10/10 19:13:47;;;;;;;7.20;2.03;;;9.20;99.90;;;;;;5037641;28;20049;-77
2022/10/10 19:16:13;;;;;;;7.82;2.50;;;9.20;99.90;;;;;;5054093;28;20055;-77
2022/10/10 19:18:38;;;;;;;15.52;2.08;;;9.20;99.90;;;;;;5049230;28;20098;-76
2022/10/10 19:21:04;;;;;;;11.48;2.40;;;9.10;99.90;;;;;;5067594;28;20052;-76
2022/10/10 19:23:32;;;;;;;10.93;2.28;;;9.20;99.90;;;;;;5043865;28;20151;-76
2022/10/10 19:26:02;;;;;;;3.97;1.77;;;9.20;99.90;;;;;;5043980;28;20110;-75
2022/10/10 19:28:29;;;;;;;15.55;2.40;;;9.20;99.90;;;;;;5058819;28;20618;-82
2022/10/10 19:30:54;;;;;;;12.02;2.05;;;9.20;99.90;;;;;;5060410;28;20043;-77
2022/10/10 19:33:20;;;;;;;4.88;1.40;;;9.10;99.90;;;;;;5039769;28;20040;-79
2022/10/10 19:35:46;;;;;;;8.35;2.53;;;9.10;99.90;;;;;;5057835;28;20056;-80
2022/10/10 19:38:12;;;;;;;5.47;1.55;;;9.10;99.90;;;;;;5053911;28;20384;-80
2022/10/10 19:40:48;;;;;;;10.38;1.67;;;9.10;99.90;;;;;;5056675;28;20108;-76
2022/10/10 19:43:15;;;;;;;7.57;2.10;;;9.10;99.90;;;;;;5044957;28;20048;-78
2022/10/10 19:45:43;;;;;;;24.90;3.40;;;9.10;99.90;;;;;;5043214;28;20040;-77
2022/10/10 19:48:09;;;;;;;9.90;1.90;;;9.10;99.90;;;;;;5060363;28;20037;-80
2022/10/10 19:50:41;;;;;;;;;;;9.00;99.90;;;;;;5056484;28;20037;-79
2022/10/10 19:53:09;;;;;;;13.48;2.08;;;9.00;99.90;;;;;;5037364;28;19944;-80
2022/10/10 19:55:35;;;;;;;7.18;1.70;;;9.00;99.90;;;;;;5044886;28;20051;-78
2022/10/10 19:58:01;;;;;;;9.00;2.13;;;9.00;99.90;;;;;;5062046;28;20515;-78
2022/10/10 20:00:27;;;;;;;13.70;2.05;;;9.00;99.90;;;;;;5040193;28;20584;-78
2022/10/10 20:02:53;;;;;;;8.43;2.70;;;9.00;99.90;;;;;;5038645;28;20385;-77
2022/10/10 20:05:19;;;;;;;5.82;2.30;;;8.90;99.90;;;;;;5059789;28;20045;-76
2022/10/10 20:07:48;;;;;;;8.63;2.53;;;8.90;99.90;;;;;;5060539;28;20041;-78
2022/10/10 20:10:14;;;;;;;7.47;2.50;;;8.90;99.90;;;;;;5059740;28;20052;-80
2022/10/10 20:12:39;;;;;;;10.65;2.13;;;8.90;99.90;;;;;;5043523;28;20060;-79
2022/10/10 20:15:05;;;;;;;7.40;2.15;;;8.80;99.90;;;;;;5041759;28;20485;-77
2022/10/10 20:17:31;;;;;;;9.65;2.08;;;8.70;99.90;;;;;;5051410;28;20048;-76
2022/10/10 20:19:57;;;;;;;10.20;1.92;;;8.60;99.90;;;;;;5036010;28;20048;-76
2022/10/10 20:22:23;;;;;;;5.57;1.67;;;8.60;99.90;;;;;;5053209;28;21202;-77
2022/10/10 20:24:48;;;;;;;6.63;2.03;;;8.50;99.90;;;;;;5052280;28;20491;-77
2022/10/10 20:27:14;;;;;;;11.50;2.05;;;8.40;99.90;;;;;;5053641;28;20120;-79
2022/10/10 20:29:40;;;;;;;7.05;2.45;;;8.30;99.90;;;;;;5038773;28;20102;-76
2022/10/10 20:32:05;;;;;;;9.68;2.83;;;8.30;99.90;;;;;;5055656;28;20550;-79
2022/10/10 20:34:32;;;;;;;10.13;2.60;;;8.20;99.90;;;;;;5033368;28;20043;-77
2022/10/10 20:36:58;;;;;;;13.43;2.35;;;8.20;99.90;;;;;;5034696;28;20478;-79
2022/10/10 20:39:24;;;;;;;;;;;8.30;99.90;;;;;;5036657;28;20158;-80
2022/10/10 20:41:49;;;;;;;6.80;2.17;;;8.20;99.90;;;;;;5020991;28;19938;-79
2022/10/10 20:44:15;;;;;;;22.42;3.80;;;8.20;99.90;;;;;;5033755;28;20095;-80
2022/10/10 20:46:43;;;;;;;7.10;2.05;;;8.20;99.90;;;;;;5055919;28;20498;-79
2022/10/10 20:49:18;;;;;;;8.30;2.10;;;8.20;99.90;;;;;;5056004;28;20060;-78
2022/10/10 20:51:47;;;;;;;17.70;3.03;;;8.20;99.90;;;;;;5054483;28;20049;-80
2022/10/10 20:54:19;;;;;;;10.82;2.38;;;8.20;99.90;;;;;;5034777;28;20473;-80
2022/10/10 20:56:47;;;;;;;9.35;2.70;;;8.20;99.90;;;;;;5033906;28;20044;-77
2022/10/10 20:59:14;;;;;;;8.82;2.50;;;8.20;99.90;;;;;;5055019;28;20037;-79
2022/10/10 21:01:39;;;;;;;13.38;2.58;;;8.20;99.90;;;;;;5025164;28;20155;-78
2022/10/10 21:04:08;;;;;;;7.28;2.53;;;8.10;99.90;;;;;;5062131;28;20115;-77
2022/10/10 21:06:35;;;;;;;8.10;2.45;;;8.10;99.90;;;;;;5062026;28;20599;-78
2022/10/10 21:09:04;;;;;;;7.13;2.10;;;8.10;99.90;;;;;;5041154;28;20040;-79
2022/10/10 21:11:30;;;;;;;11.18;2.50;;;8.20;99.90;;;;;;5038582;28;20048;-78
2022/10/10 21:13:58;;;;;;;9.55;2.35;;;8.10;99.90;;;;;;5061991;28;20086;-77
2022/10/10 21:16:35;;;;;;;4.40;1.70;;;8.20;99.90;;;;;;5044438;28;20048;-78
2022/10/10 21:19:02;;;;;;;7.03;1.90;;;8.10;99.90;;;;;;5036840;28;20041;-77
2022/10/10 21:21:31;;;;;;;8.57;2.17;;;8.00;99.90;;;;;;5041642;28;20033;-77
2022/10/10 21:23:57;;;;;;;10.93;2.17;;;8.00;99.90;;;;;;5047473;28;20093;-77
2022/10/10 21:26:25;;;;;;;9.43;2.20;;;7.80;99.90;;;;;;5046881;28;20052;-78
2022/10/10 21:28:51;;;;;;;7.60;2.20;;;7.80;99.90;;;;;;5065304;28;20112;-77
2022/10/10 21:31:19;;;;;;;8.23;3.00;;;7.80;99.90;;;;;;5073689;28;20953;-79
2022/10/10 21:33:48;;;;;;;13.68;2.83;;;7.80;99.90;;;;;;5074699;28;20456;-77
2022/10/10 21:36:18;;;;;;;12.07;2.40;;;7.70;99.90;;;;;;5034931;28;20048;-75
2022/10/10 21:38:44;;;;;;;9.95;3.47;;;7.80;99.90;;;;;;5047921;28;20044;-76
2022/10/10 21:41:12;;;;;;;8.40;2.38;;;7.70;99.90;;;;;;5051052;28;20148;-76
2022/10/10 21:43:39;;;;;;;16.38;2.75;;;7.80;99.90;;;;;;5038113;28;20075;-78
2022/10/10 21:46:13;;;;;;;13.52;3.22;;;7.70;99.90;;;;;;5047745;28;20044;-77
2022/10/10 21:48:39;;;;;;;5.70;2.38;;;7.70;99.90;;;;;;5049689;28;20496;-78
2022/10/10 21:51:05;;;;;;;9.43;2.42;;;7.80;99.90;;;;;;5029902;28;20516;-78
2022/10/10 21:53:31;;;;;;;8.55;2.28;;;7.70;99.90;;;;;;5058905;28;20049;-78
2022/10/10 21:55:56;;;;;;;10.15;3.03;;;7.80;99.90;;;;;;5060450;28;20131;-77
2022/10/10 21:58:23;;;;;;;6.90;2.65;;;7.70;99.90;;;;;;5044241;28;20033;-78
2022/10/10 22:00:50;;;;;;;7.93;2.00;;;7.70;99.90;;;;;;5052439;28;20060;-76
2022/10/10 22:03:15;;;;;;;5.10;1.95;;;7.60;99.90;;;;;;5032247;28;20123;-76
2022/10/10 22:05:42;;;;;;;7.40;1.90;;;7.60;99.90;;;;;;5051322;28;20167;-76
2022/10/10 22:08:07;;;;;;;8.10;2.53;;;7.50;99.90;;;;;;5019606;28;20173;-78
2022/10/10 22:10:34;;;;;;;8.18;2.22;;;7.50;99.90;;;;;;5060612;28;20154;-77
2022/10/10 22:13:01;;;;;;;9.35;2.38;;;7.40;99.90;;;;;;5067399;28;20047;-77
2022/10/10 22:15:27;;;;;;;6.88;2.13;;;7.40;99.90;;;;;;5066880;28;20044;-77
2022/10/10 22:17:53;;;;;;;9.48;2.33;;;7.30;99.90;;;;;;5037032;28;20056;-76
2022/10/10 22:20:19;;;;;;;;;;;7.30;99.90;;;;;;5054793;28;20056;-77
2022/10/10 22:22:45;;;;;;;7.28;1.80;;;7.30;99.90;;;;;;5061356;28;19920;-76
2022/10/10 22:25:17;;;;;;;8.52;2.50;;;7.30;99.90;;;;;;5046554;28;20121;-77
2022/10/10 22:27:43;;;;;;;10.48;2.70;;;7.30;99.90;;;;;;5042966;28;20052;-76
2022/10/10 22:30:10;;;;;;;15.93;2.67;;;7.30;99.90;;;;;;5062882;28;20065;-76
2022/10/10 22:32:36;;;;;;;8.95;2.05;;;7.30;99.90;;;;;;5062385;28;20433;-76
2022/10/10 22:35:02;;;;;;;7.28;2.92;;;7.30;99.90;;;;;;5058662;28;20120;-78
2022/10/10 22:37:28;;;;;;;;;;;7.30;99.90;;;;;;5067152;28;20055;-78
2022/10/10 22:39:54;;;;;;;10.63;3.17;;;7.40;99.90;;;;;;5040361;28;19924;-75
2022/10/10 22:42:19;;;;;;;11.02;2.17;;;7.30;99.90;;;;;;5035076;28;20045;-76
2022/10/10 22:44:45;;;;;;;12.68;3.05;;;7.30;99.90;;;;;;5043264;28;20084;-73
2022/10/10 22:47:11;;;;;;;8.75;2.60;;;7.30;99.90;;;;;;5066718;28;20043;-73
2022/10/10 22:49:37;;;;;;;;;;;7.30;99.90;;;;;;5040985;28;20397;-73
2022/10/10 22:52:07;;;;;;;5.68;2.28;;;7.30;99.90;;;;;;5060670;28;19924;-74
2022/10/10 22:54:33;;;;;;;14.23;2.40;;;7.40;99.90;;;;;;5057753;28;20053;-75
2022/10/10 22:56:59;;;;;;;10.80;2.35;;;7.30;99.90;;;;;;5028753;28;20143;-73
2022/10/10 22:59:25;;;;;;;10.63;2.00;;;7.30;99.90;;;;;;5056016;28;20553;-75
2022/10/10 23:01:53;;;;;;;5.55;1.83;;;7.30;99.90;;;;;;5039873;28;20048;-73
2022/10/10 23:04:19;;;;;;;6.85;1.90;;;7.30;99.90;;;;;;5051501;28;20067;-73
2022/10/10 23:06:45;;;;;;;7.85;2.03;;;7.20;99.90;;;;;;5057071;28;20235;-75
2022/10/10 23:09:11;;;;;;;7.82;2.08;;;7.10;99.90;;;;;;5038103;28;20041;-73
2022/10/10 23:11:37;;;;;;;;;;;7.20;99.90;;;;;;5051149;28;20052;-74
2022/10/10 23:14:03;;;;;;;7.95;1.95;;;7.20;99.90;;;;;;5052100;28;19924;-74
2022/10/10 23:16:29;;;;;;;8.43;2.10;;;7.20;99.90;;;;;;5049140;28;20075;-76
2022/10/10 23:18:54;;;;;;;6.05;2.00;;;7.20;99.90;;;;;;5061866;28;20473;-75
2022/10/10 23:21:20;;;;;;;3.53;1.90;;;7.20;99.90;;;;;;5067748;28;20032;-74
2022/10/10 23:23:46;;;;;;;9.57;1.98;;;7.20;99.90;;;;;;5062288;28;20039;-73
2022/10/10 23:26:11;;;;;;;7.50;1.90;;;7.20;99.90;;;;;;5061378;28;20071;-73
2022/10/10 23:28:43;;;;;;;11.02;2.50;;;7.20;99.90;;;;;;5061754;28;20037;-73
2022/10/10 23:31:10;;;;;;;7.43;3.25;;;7.20;99.90;;;;;;5059769;28;20053;-73
2022/10/10 23:33:36;;;;;;;4.32;1.63;;;7.20;99.90;;;;;;5043745;28;20427;-74
2022/10/10 23:36:07;;;;;;;6.93;1.90;;;7.20;99.90;;;;;;5047383;28;20499;-73
2022/10/10 23:38:33;;;;;;;7.07;2.13;;;7.10;99.90;;;;;;5028747;28;20049;-76
2022/10/10 23:40:59;;;;;;;;;;;7.10;99.90;;;;;;5071004;28;20051;-73
2022/10/10 23:43:25;;;;;;;4.65;1.70;;;7.20;99.90;;;;;;5068058;28;19921;-73
2022/10/10 23:45:50;;;;;;;16.15;2.60;;;7.20;99.90;;;;;;5040451;28;20079;-74
2022/10/10 23:48:16;;;;;;;9.18;2.17;;;7.20;99.90;;;;;;5055400;28;20091;-74
2022/10/10 23:50:43;;;;;;;4.68;1.63;;;7.10;99.90;;;;;;5062118;28;20076;-74
2022/10/10 23:53:10;;;;;;;9.05;2.30;;;7.10;99.90;;;;;;5067773;28;20388;-73